createdAt,value
2023-02-11T00:02:54.514Z,85.03
2023-02-11T00:06:55.694Z,88.23
2023-02-11T00:10:56.714Z,86.37
2023-02-11T00:14:57.006Z,84.73
2023-02-11T00:19:02.565Z,91.77
2023-02-11T00:23:02.973Z,77.83
2023-02-11T00:27:03.535Z,81.90
2023-02-11T00:31:04.395Z,83.03
2023-02-11T00:35:08.576Z,78.27
2023-02-11T00:39:10.762Z,83.30
2023-02-11T00:43:11.340Z,80.87
2023-02-11T00:47:11.566Z,82.23
2023-02-11T00:51:15.160Z,65.90
2023-02-11T00:55:15.868Z,68.53
2023-02-11T00:59:16.455Z,73.30
2023-02-11T01:03:18.415Z,67.63
2023-02-11T01:07:22.577Z,77.20
2023-02-11T01:11:24.952Z,67.43
2023-02-11T01:15:27.240Z,80.83
2023-02-11T01:19:27.819Z,77.73
2023-02-11T01:23:30.981Z,71.33
2023-02-11T01:27:31.297Z,70.43
2023-02-11T01:31:34.071Z,67.00
2023-02-11T01:35:34.508Z,66.40
2023-02-11T01:39:40.102Z,67.93
2023-02-11T01:43:44.472Z,61.33
2023-02-11T01:47:45.480Z,66.37
2023-02-11T01:51:51.755Z,67.57
2023-02-11T01:56:08.842Z,67.93
2023-02-11T02:00:17.273Z,65.77
2023-02-11T02:04:22.619Z,77.20
2023-02-11T02:08:32.742Z,68.97
2023-02-11T02:12:39.001Z,66.43
2023-02-11T02:16:41.048Z,69.20
2023-02-11T02:21:32.722Z,62.43
2023-02-11T02:26:44.663Z,66.93
2023-02-11T02:31:30.586Z,56.73
2023-02-11T02:35:45.851Z,64.90
2023-02-11T02:39:52.721Z,60.83
2023-02-11T02:43:55.737Z,61.97
2023-02-11T02:47:56.662Z,66.90
2023-02-11T02:52:28.821Z,64.60
2023-02-11T02:56:42.718Z,59.60
2023-02-11T03:00:57.943Z,61.00
2023-02-11T03:05:09.905Z,62.03
2023-02-11T03:09:22.626Z,60.23
2023-02-11T03:13:29.461Z,56.93
2023-02-11T03:17:34.678Z,58.90
2023-02-11T03:21:39.263Z,58.53
2023-02-11T03:25:54.599Z,58.37
2023-02-11T03:30:04.553Z,60.30
2023-02-11T03:34:15.791Z,58.63
2023-02-11T03:38:24.456Z,55.60
2023-02-11T03:42:35.293Z,56.90
2023-02-11T03:46:42.241Z,59.47
2023-02-11T03:50:46.282Z,59.83
2023-02-11T03:54:49.760Z,59.30
2023-02-11T03:58:53.017Z,58.83
2023-02-11T04:02:53.410Z,62.50
2023-02-11T04:06:53.743Z,52.47
2023-02-11T04:10:54.094Z,58.80
2023-02-11T04:14:57.604Z,60.93
2023-02-11T04:18:58.045Z,59.43
2023-02-11T04:22:58.507Z,64.63
2023-02-11T04:26:58.904Z,61.80
2023-02-11T04:31:02.138Z,63.07
2023-02-11T04:35:03.016Z,58.23
2023-02-11T04:39:03.634Z,60.60
2023-02-11T04:43:04.492Z,55.97
2023-02-11T04:47:08.124Z,62.77
2023-02-11T04:51:09.282Z,55.90
2023-02-11T04:55:11.394Z,57.60
2023-02-11T04:59:13.414Z,59.73
2023-02-11T05:03:16.954Z,60.70
2023-02-11T05:07:17.455Z,60.13
2023-02-11T05:11:21.972Z,59.83
2023-02-11T05:15:22.477Z,59.33
2023-02-11T05:19:25.593Z,57.53
2023-02-11T05:23:26.126Z,60.47
2023-02-11T05:27:26.412Z,55.00
2023-02-11T05:31:27.560Z,54.60
2023-02-11T05:35:31.002Z,57.10
2023-02-11T05:39:31.528Z,57.30
2023-02-11T05:43:32.001Z,57.53
2023-02-11T05:47:32.502Z,55.83
2023-02-11T05:51:35.466Z,58.10
2023-02-11T05:55:36.597Z,55.70
2023-02-11T05:59:37.510Z,50.33
2023-02-11T06:03:38.163Z,48.77
2023-02-11T06:07:41.239Z,48.97
2023-02-11T06:11:42.182Z,53.97
2023-02-11T06:15:42.842Z,68.70
2023-02-11T06:19:43.143Z,49.13
2023-02-11T06:23:46.230Z,50.17
2023-02-11T06:27:46.816Z,52.47
2023-02-11T06:31:47.571Z,53.63
2023-02-11T06:35:48.514Z,53.07
2023-02-11T06:39:52.277Z,53.27
2023-02-11T06:43:52.848Z,59.60
2023-02-11T06:47:55.619Z,54.33
2023-02-11T06:51:56.285Z,50.20
2023-02-11T06:55:59.565Z,50.83
2023-02-11T06:59:59.872Z,51.63
2023-02-11T07:04:00.368Z,50.73
2023-02-11T07:08:00.846Z,53.07
2023-02-11T07:12:04.056Z,48.67
2023-02-11T07:16:10.606Z,52.93
2023-02-11T07:20:12.633Z,58.10
2023-02-11T07:24:14.084Z,63.97
2023-02-11T07:28:17.371Z,59.97
2023-02-11T07:32:18.215Z,62.50
2023-02-11T07:36:20.098Z,56.97
2023-02-11T07:40:20.867Z,57.27
2023-02-11T07:44:24.333Z,53.97
2023-02-11T07:48:27.289Z,58.47
2023-02-11T07:52:27.957Z,57.73
2023-02-11T07:56:29.449Z,54.93
2023-02-11T08:00:32.702Z,53.60
2023-02-11T08:04:33.243Z,53.73
2023-02-11T08:08:33.710Z,45.10
2023-02-11T08:12:34.416Z,41.67
2023-02-11T08:16:40.849Z,41.50
2023-02-11T08:20:42.112Z,58.47
2023-02-11T08:24:42.946Z,62.50
2023-02-11T08:28:46.697Z,54.63
2023-02-11T08:32:49.971Z,53.40
2023-02-11T08:36:51.479Z,47.80
2023-02-11T08:40:54.192Z,57.60
2023-02-11T08:44:54.913Z,57.70
2023-02-11T08:48:58.423Z,58.60
2023-02-11T08:52:58.661Z,49.87
2023-02-11T08:56:59.575Z,41.77
2023-02-11T09:00:59.885Z,37.57
2023-02-11T09:05:03.447Z,36.70
2023-02-11T09:09:04.740Z,35.47
2023-02-11T09:13:05.268Z,32.93
2023-02-11T09:17:05.714Z,37.50
2023-02-11T09:21:12.445Z,37.93
2023-02-11T09:25:13.772Z,40.47
2023-02-11T09:29:14.191Z,35.70
2023-02-11T09:33:14.509Z,37.87
2023-02-11T09:37:17.504Z,36.97
2023-02-11T09:41:42.404Z,38.53
2023-02-11T09:45:44.250Z,36.33
2023-02-11T09:49:53.022Z,31.27
2023-02-11T09:54:07.117Z,35.63
2023-02-11T09:58:19.059Z,36.00
2023-02-11T10:02:29.355Z,32.57
2023-02-11T10:06:50.846Z,30.57
2023-02-11T10:11:01.963Z,33.97
2023-02-11T10:15:17.921Z,33.33
2023-02-11T10:19:43.614Z,29.13
2023-02-11T10:23:52.212Z,29.50
2023-02-11T10:27:59.447Z,34.07
2023-02-11T10:32:02.593Z,27.93
2023-02-11T10:36:03.441Z,36.90
2023-02-11T10:40:04.125Z,31.63
2023-02-11T10:44:10.839Z,35.17
2023-02-11T10:48:43.774Z,32.20
2023-02-11T10:52:44.607Z,31.23
2023-02-11T10:56:52.354Z,31.77
2023-02-11T11:00:59.507Z,30.00
2023-02-11T11:05:03.000Z,27.63
2023-02-11T11:09:04.779Z,29.53
2023-02-11T11:13:07.622Z,27.47
2023-02-11T11:17:22.069Z,28.37
2023-02-11T11:21:27.556Z,32.13
2023-02-11T11:25:31.555Z,28.57
2023-02-11T11:29:38.681Z,29.07
2023-02-11T11:33:47.134Z,29.10
2023-02-11T11:37:48.264Z,31.77
2023-02-11T11:41:59.660Z,32.33
2023-02-11T11:46:06.331Z,32.20
2023-02-11T11:50:35.205Z,35.13
2023-02-11T11:54:38.056Z,30.40
2023-02-11T11:58:38.825Z,29.00
2023-02-11T12:03:21.436Z,31.13
2023-02-11T12:07:41.699Z,34.80
2023-02-11T12:12:01.656Z,28.73
2023-02-11T12:16:20.431Z,30.17
2023-02-11T12:20:38.117Z,27.60
2023-02-11T12:25:05.300Z,30.13
2023-02-11T12:29:21.624Z,35.60
2023-02-11T12:33:42.298Z,31.57
2023-02-11T12:38:16.145Z,27.00
2023-02-11T12:43:02.748Z,26.77
2023-02-11T12:47:22.036Z,31.03
2023-02-11T12:51:40.357Z,28.30
2023-02-11T12:55:46.324Z,27.80
2023-02-11T13:00:00.622Z,25.97
2023-02-11T13:04:13.603Z,28.17
2023-02-11T13:08:20.843Z,27.83
2023-02-11T13:12:34.510Z,26.20
2023-02-11T13:16:46.113Z,32.50
2023-02-11T13:20:54.699Z,28.07
2023-02-11T13:25:06.429Z,30.77
2023-02-11T13:29:27.920Z,33.03
2023-02-11T13:33:43.070Z,30.70
2023-02-11T13:37:51.146Z,31.33
2023-02-11T13:41:52.959Z,28.97
2023-02-11T13:46:00.579Z,29.30
2023-02-11T13:50:10.767Z,29.37
2023-02-11T13:54:22.195Z,27.80
2023-02-11T13:58:40.217Z,28.23
2023-02-11T14:02:53.577Z,30.90
2023-02-11T14:07:46.744Z,30.23
2023-02-11T14:11:55.507Z,28.97
2023-02-11T14:16:10.860Z,30.77
2023-02-11T14:20:39.838Z,30.87
2023-02-11T14:24:58.423Z,30.07
2023-02-11T14:29:14.225Z,28.67
2023-02-11T14:34:00.289Z,33.47
2023-02-11T14:38:12.926Z,35.67
2023-02-11T14:42:22.732Z,34.97
2023-02-11T14:46:27.856Z,38.17
2023-02-11T14:50:35.269Z,30.00
2023-02-11T14:54:38.264Z,31.00
2023-02-11T14:58:48.803Z,27.27
2023-02-11T15:02:49.863Z,30.40
2023-02-11T15:06:52.454Z,29.03
2023-02-11T15:10:53.379Z,33.53
2023-02-11T15:15:01.228Z,32.30
2023-02-11T15:19:07.642Z,32.23
2023-02-11T15:23:20.615Z,38.73
2023-02-11T15:27:22.868Z,33.47
2023-02-11T15:31:29.880Z,34.47
2023-02-11T15:35:35.237Z,37.10
2023-02-11T15:39:41.182Z,34.60
2023-02-11T15:43:46.819Z,38.10
2023-02-11T15:47:57.327Z,35.37
2023-02-11T15:52:01.284Z,30.10
2023-02-11T15:56:16.404Z,30.17
2023-02-11T16:00:22.180Z,32.80
2023-02-11T16:04:29.624Z,30.57
2023-02-11T16:08:34.727Z,29.73
2023-02-11T16:12:35.360Z,31.53
2023-02-11T16:16:38.338Z,33.20
2023-02-11T16:20:43.839Z,38.17
2023-02-11T16:24:45.272Z,40.17
2023-02-11T16:28:45.750Z,33.40
2023-02-11T16:32:46.568Z,39.33
2023-02-11T16:36:51.576Z,39.87
2023-02-11T16:40:52.249Z,37.17
2023-02-11T16:44:53.014Z,36.97
2023-02-11T16:48:54.073Z,36.43
2023-02-11T16:52:58.394Z,38.50
2023-02-11T16:56:59.767Z,36.80
2023-02-11T17:01:00.851Z,41.50
2023-02-11T17:05:05.922Z,37.40
2023-02-11T17:09:09.065Z,42.33
2023-02-11T17:13:10.036Z,45.87
2023-02-11T17:17:12.190Z,42.07
2023-02-11T17:21:13.066Z,41.93
2023-02-11T17:25:16.226Z,40.70
2023-02-11T17:29:22.115Z,42.77
2023-02-11T17:33:22.563Z,39.13
2023-02-11T17:37:22.977Z,38.47
2023-02-11T17:41:26.676Z,42.00
2023-02-11T17:45:26.924Z,42.47
2023-02-11T17:49:27.795Z,39.73
2023-02-11T17:53:28.588Z,40.10
2023-02-11T17:57:31.911Z,45.00
2023-02-11T18:01:34.537Z,43.63
2023-02-11T18:05:38.092Z,46.73
2023-02-11T18:09:41.936Z,46.30
2023-02-11T18:13:45.216Z,45.37
2023-02-11T18:17:46.299Z,46.13
2023-02-11T18:21:49.078Z,45.13
2023-02-11T18:25:50.301Z,54.30
2023-02-11T18:29:53.829Z,46.10
2023-02-11T18:33:55.512Z,42.53
2023-02-11T18:37:56.278Z,50.20
2023-02-11T18:41:59.833Z,47.40
2023-02-11T18:46:04.410Z,47.90
2023-02-11T18:50:05.146Z,48.30
2023-02-11T18:54:05.572Z,59.43
2023-02-11T18:58:05.978Z,45.63
2023-02-11T19:02:09.897Z,42.13
2023-02-11T19:06:16.086Z,45.50
2023-02-11T19:10:16.559Z,45.77
2023-02-11T19:14:18.398Z,43.20
2023-02-11T19:18:21.871Z,40.47
2023-02-11T19:22:22.625Z,44.87
2023-02-11T19:26:27.182Z,44.20
2023-02-11T19:30:27.700Z,46.83
2023-02-11T19:34:30.977Z,45.47
2023-02-11T19:38:31.851Z,48.47
2023-02-11T19:42:32.258Z,44.33
2023-02-11T19:46:38.917Z,38.87
2023-02-11T19:50:43.808Z,39.50
2023-02-11T19:54:44.225Z,46.13
2023-02-11T19:58:46.159Z,41.63
2023-02-11T20:02:47.236Z,43.37
2023-02-11T20:06:51.016Z,39.03
2023-02-11T20:10:51.431Z,45.30
2023-02-11T20:14:51.871Z,56.67
2023-02-11T20:18:54.249Z,52.73
2023-02-11T20:22:58.737Z,52.23
2023-02-11T20:26:59.209Z,43.47
2023-02-11T20:31:00.082Z,43.80
2023-02-11T20:35:00.812Z,48.37
2023-02-11T20:39:05.999Z,49.77
2023-02-11T20:43:06.749Z,46.20
2023-02-11T20:47:07.674Z,47.57
2023-02-11T20:51:10.751Z,46.90
2023-02-11T20:55:14.272Z,46.17
2023-02-11T20:59:16.994Z,44.30
2023-02-11T21:03:17.796Z,47.17
2023-02-11T21:07:18.160Z,47.57
2023-02-11T21:11:21.336Z,43.33
2023-02-11T21:15:24.252Z,41.00
2023-02-11T21:19:24.889Z,42.53
2023-02-11T21:23:25.884Z,43.67
2023-02-11T21:27:32.431Z,43.47
2023-02-11T21:31:36.566Z,43.87
2023-02-11T21:35:37.829Z,48.30
2023-02-11T21:39:38.385Z,50.03
2023-02-11T21:43:41.958Z,51.67
2023-02-11T21:47:42.695Z,45.50
2023-02-11T21:51:43.195Z,45.73
2023-02-11T21:55:44.512Z,48.90
2023-02-11T21:59:48.981Z,49.33
2023-02-11T22:03:50.763Z,47.40
2023-02-11T22:07:51.651Z,46.03
2023-02-11T22:11:53.150Z,45.93
2023-02-11T22:16:06.040Z,44.87
2023-02-11T22:20:07.720Z,53.73
2023-02-11T22:24:09.936Z,43.13
2023-02-11T22:28:10.240Z,47.87
2023-02-11T22:32:14.137Z,44.43
2023-02-11T22:36:20.703Z,48.73
2023-02-11T22:40:21.490Z,49.63
2023-02-11T22:44:22.389Z,47.67
2023-02-11T22:48:25.794Z,44.50
2023-02-11T22:52:26.266Z,47.17
2023-02-11T22:56:28.123Z,49.07
2023-02-11T23:00:33.905Z,47.63
2023-02-11T23:04:37.114Z,46.83
2023-02-11T23:08:38.409Z,51.87
2023-02-11T23:12:38.819Z,46.93
2023-02-11T23:16:39.365Z,48.23
2023-02-11T23:20:46.418Z,48.47
2023-02-11T23:24:46.873Z,51.63
2023-02-11T23:28:48.398Z,46.43
2023-02-11T23:32:49.160Z,50.53
2023-02-11T23:36:52.476Z,54.60
2023-02-11T23:40:52.996Z,47.93
2023-02-11T23:44:53.656Z,52.13
2023-02-11T23:48:55.535Z,52.87
2023-02-11T23:52:59.245Z,62.80
2023-02-11T23:56:59.541Z,51.20
